createdAt,value
2019-03-18T00:01:34.686Z,1.80
2019-03-18T00:04:03.885Z,2.07
2019-03-18T00:06:33.108Z,1.70
2019-03-18T00:09:02.338Z,1.90
2019-03-18T00:11:31.555Z,2.00
2019-03-18T00:14:00.790Z,1.77
2019-03-18T00:16:29.991Z,1.83
2019-03-18T00:18:59.270Z,1.50
2019-03-18T00:21:28.486Z,1.80
2019-03-18T00:23:57.707Z,1.60
2019-03-18T00:26:26.922Z,1.77
2019-03-18T00:28:56.147Z,2.07
2019-03-18T00:31:25.378Z,1.70
2019-03-18T00:33:54.611Z,1.80
2019-03-18T00:36:23.844Z,1.50
2019-03-18T00:38:53.065Z,1.50
2019-03-18T00:41:22.281Z,1.67
2019-03-18T00:43:51.518Z,1.40
2019-03-18T00:46:20.721Z,1.60
2019-03-18T00:48:49.951Z,1.50
2019-03-18T00:51:19.164Z,1.57
2019-03-18T00:53:48.404Z,1.50
2019-03-18T00:56:17.608Z,1.20
2019-03-18T00:58:46.830Z,1.73
2019-03-18T01:01:16.039Z,1.53
2019-03-18T01:03:45.266Z,1.50
2019-03-18T01:06:14.487Z,1.33
2019-03-18T01:08:43.717Z,1.50
2019-03-18T01:11:12.926Z,1.60
2019-03-18T01:13:42.241Z,1.60
2019-03-18T01:16:11.454Z,1.50
2019-03-18T01:18:40.689Z,2.07
2019-03-18T01:21:09.887Z,1.50
2019-03-18T01:23:39.114Z,1.50
2019-03-18T01:26:08.316Z,1.50
2019-03-18T01:28:37.553Z,1.50
2019-03-18T01:31:06.822Z,1.70
2019-03-18T01:33:36.060Z,1.50
2019-03-18T01:36:05.269Z,1.60
2019-03-18T01:38:34.495Z,1.50
2019-03-18T01:41:03.706Z,1.73
2019-03-18T01:43:32.942Z,1.63
2019-03-18T01:46:02.143Z,1.70
2019-03-18T01:48:31.378Z,1.57
2019-03-18T01:51:00.682Z,1.50
2019-03-18T01:53:29.930Z,1.43
2019-03-18T01:55:59.139Z,1.40
2019-03-18T01:58:28.384Z,1.60
2019-03-18T02:00:57.722Z,1.67
2019-03-18T02:03:26.928Z,1.60
2019-03-18T02:05:56.168Z,1.50
2019-03-18T02:08:25.381Z,1.60
2019-03-18T02:10:54.605Z,1.60
2019-03-18T02:13:23.833Z,1.50
2019-03-18T02:15:53.900Z,2.00
2019-03-18T02:18:23.340Z,1.70
2019-03-18T02:20:52.567Z,1.70
2019-03-18T02:23:21.766Z,1.80
2019-03-18T02:25:50.995Z,1.90
2019-03-18T02:28:20.208Z,1.80
2019-03-18T02:30:49.545Z,1.53
2019-03-18T02:33:18.762Z,1.87
2019-03-18T02:35:48.041Z,1.80
2019-03-18T02:38:17.280Z,1.60
2019-03-18T02:40:46.513Z,1.50
2019-03-18T02:43:15.724Z,1.60
2019-03-18T02:45:44.967Z,1.70
2019-03-18T02:48:14.178Z,1.60
2019-03-18T02:50:43.408Z,1.50
2019-03-18T02:53:12.611Z,1.60
2019-03-18T02:55:41.846Z,1.30
2019-03-18T02:58:11.048Z,1.60
2019-03-18T03:00:40.334Z,1.60
2019-03-18T03:03:09.543Z,1.67
2019-03-18T03:05:38.917Z,1.50
2019-03-18T03:08:08.121Z,1.60
2019-03-18T03:10:37.384Z,1.30
2019-03-18T03:13:06.613Z,1.50
2019-03-18T03:15:35.832Z,1.50
2019-03-18T03:18:05.047Z,1.60
2019-03-18T03:20:34.485Z,1.40
2019-03-18T03:23:03.681Z,1.40
2019-03-18T03:25:32.964Z,1.50
2019-03-18T03:28:02.131Z,1.50
2019-03-18T03:30:31.366Z,1.60
2019-03-18T03:33:00.695Z,1.70
2019-03-18T03:35:30.004Z,1.20
2019-03-18T03:37:59.217Z,1.07
2019-03-18T03:40:28.451Z,1.10
2019-03-18T03:42:57.736Z,1.40
2019-03-18T03:45:26.978Z,1.50
2019-03-18T03:47:56.183Z,1.20
2019-03-18T03:50:25.413Z,1.30
2019-03-18T03:52:54.631Z,1.40
2019-03-18T03:55:23.932Z,1.57
2019-03-18T03:57:53.134Z,1.40
2019-03-18T04:00:22.410Z,1.70
2019-03-18T04:02:51.621Z,1.40
2019-03-18T04:05:20.866Z,1.60
2019-03-18T04:07:50.069Z,1.43
2019-03-18T04:10:19.321Z,1.50
2019-03-18T04:12:48.530Z,1.63
2019-03-18T04:15:17.916Z,1.37
2019-03-18T04:17:47.978Z,1.40
2019-03-18T04:20:17.236Z,1.90
2019-03-18T04:22:46.439Z,1.63
2019-03-18T04:25:15.659Z,1.37
2019-03-18T04:27:44.867Z,1.50
2019-03-18T04:30:14.132Z,1.47
2019-03-18T04:32:43.367Z,1.50
2019-03-18T04:35:12.592Z,1.40
2019-03-18T04:37:41.843Z,1.50
2019-03-18T04:40:11.604Z,1.37
2019-03-18T04:42:40.830Z,1.53
2019-03-18T04:45:10.150Z,1.50
2019-03-18T04:47:39.378Z,1.60
2019-03-18T04:50:08.596Z,1.37
2019-03-18T04:52:37.848Z,1.70
2019-03-18T04:55:07.095Z,1.63
2019-03-18T04:57:36.720Z,1.57
2019-03-18T05:00:06.574Z,1.50
2019-03-18T05:02:35.800Z,1.40
2019-03-18T05:05:05.445Z,1.50
2019-03-18T05:07:34.688Z,1.60
2019-03-18T05:10:04.121Z,1.67
2019-03-18T05:12:33.370Z,1.60
2019-03-18T05:15:02.598Z,1.80
2019-03-18T05:17:31.822Z,1.70
2019-03-18T05:20:01.243Z,1.70
2019-03-18T05:22:30.543Z,1.63
2019-03-18T05:24:59.747Z,1.60
2019-03-18T05:27:28.984Z,1.73
2019-03-18T05:29:58.184Z,1.50
2019-03-18T05:32:27.447Z,1.87
2019-03-18T05:34:57.055Z,1.80
2019-03-18T05:37:26.292Z,1.63
2019-03-18T05:39:55.521Z,1.30
2019-03-18T05:42:24.777Z,1.50
2019-03-18T05:44:54.003Z,1.30
2019-03-18T05:47:23.233Z,1.30
2019-03-18T05:49:53.873Z,1.27
2019-03-18T05:52:23.366Z,1.47
2019-03-18T05:54:52.578Z,1.50
2019-03-18T05:57:21.954Z,1.20
2019-03-18T05:59:51.257Z,1.40
2019-03-18T06:02:20.492Z,1.30
2019-03-18T06:04:49.709Z,1.40
2019-03-18T06:07:18.928Z,1.13
2019-03-18T06:09:48.236Z,1.33
2019-03-18T06:12:17.490Z,1.33
2019-03-18T06:14:46.710Z,1.40
2019-03-18T06:17:15.938Z,1.30
2019-03-18T06:19:45.150Z,1.17
2019-03-18T06:22:14.384Z,1.40
2019-03-18T06:24:43.608Z,1.47
2019-03-18T06:27:12.841Z,1.37
2019-03-18T06:29:42.042Z,1.47
2019-03-18T06:32:11.321Z,1.40
2019-03-18T06:34:40.832Z,1.33
2019-03-18T06:37:10.058Z,1.60
2019-03-18T06:39:39.257Z,1.40
2019-03-18T06:42:08.779Z,1.60
2019-03-18T06:44:37.994Z,1.67
2019-03-18T06:47:07.221Z,2.20
2019-03-18T06:49:36.431Z,1.77
2019-03-18T06:52:05.669Z,1.50
2019-03-18T06:54:34.884Z,1.30
2019-03-18T06:57:04.100Z,1.10
2019-03-18T06:59:33.352Z,1.37
2019-03-18T07:02:02.609Z,1.13
2019-03-18T07:04:31.972Z,1.20
2019-03-18T07:07:01.203Z,1.50
2019-03-18T07:09:30.442Z,1.30
2019-03-18T07:11:59.680Z,1.20
2019-03-18T07:14:28.894Z,1.30
2019-03-18T07:16:58.130Z,1.30
2019-03-18T07:19:27.338Z,1.30
2019-03-18T07:21:56.599Z,0.93
2019-03-18T07:24:25.803Z,1.40
2019-03-18T07:26:55.045Z,1.43
2019-03-18T07:29:24.265Z,1.23
2019-03-18T07:31:53.505Z,1.37
2019-03-18T07:34:22.742Z,1.20
2019-03-18T07:36:52.018Z,1.30
2019-03-18T07:39:21.255Z,1.40
2019-03-18T07:41:50.466Z,1.30
2019-03-18T07:44:19.695Z,1.50
2019-03-18T07:46:48.915Z,1.50
2019-03-18T07:49:18.182Z,1.10
2019-03-18T07:51:47.489Z,1.20
2019-03-18T07:54:16.732Z,1.43
2019-03-18T07:56:45.945Z,1.20
2019-03-18T07:59:15.171Z,1.20
2019-03-18T08:01:44.386Z,1.40
2019-03-18T08:04:13.670Z,1.30
2019-03-18T08:06:42.878Z,1.20
2019-03-18T08:09:12.122Z,1.30
2019-03-18T08:11:41.378Z,1.50
2019-03-18T08:14:10.618Z,1.20
2019-03-18T08:16:39.896Z,1.60
2019-03-18T08:19:09.134Z,1.40
2019-03-18T08:21:38.346Z,1.30
2019-03-18T08:24:07.599Z,1.40
2019-03-18T08:26:36.938Z,1.57
2019-03-18T08:29:06.179Z,1.43
2019-03-18T08:31:35.425Z,1.60
2019-03-18T08:34:04.672Z,1.43
2019-03-18T08:36:33.896Z,1.30
2019-03-18T08:39:03.195Z,1.70
2019-03-18T08:41:32.419Z,1.40
2019-03-18T08:44:01.659Z,1.70
2019-03-18T08:46:30.912Z,1.80
2019-03-18T08:49:00.451Z,1.80
2019-03-18T08:51:29.729Z,1.63
2019-03-18T08:53:59.137Z,1.70
2019-03-18T08:56:29.632Z,1.57
2019-03-18T08:58:59.152Z,2.10
2019-03-18T09:01:28.416Z,1.93
2019-03-18T09:03:57.653Z,1.80
2019-03-18T09:06:30.138Z,1.83
2019-03-18T09:08:58.215Z,2.10
2019-03-18T09:11:27.435Z,1.80
2019-03-18T09:13:57.011Z,2.00
2019-03-18T09:16:26.231Z,1.80
2019-03-18T09:19:07.706Z,1.63
2019-03-18T09:21:26.456Z,2.10
2019-03-18T09:23:55.740Z,1.80
2019-03-18T09:26:24.986Z,1.57
2019-03-18T09:28:54.225Z,1.70
2019-03-18T09:31:23.690Z,1.57
2019-03-18T09:33:53.066Z,1.90
2019-03-18T09:36:22.301Z,2.00
2019-03-18T09:38:51.541Z,1.87
2019-03-18T09:41:20.780Z,1.77
2019-03-18T09:43:50.025Z,1.80
2019-03-18T09:46:19.263Z,1.90
2019-03-18T09:48:48.772Z,2.10
2019-03-18T09:51:18.130Z,1.70
2019-03-18T09:53:47.350Z,1.70
2019-03-18T09:56:16.832Z,1.70
2019-03-18T09:58:46.044Z,1.87
2019-03-18T10:01:15.289Z,1.50
2019-03-18T10:03:44.545Z,1.60
2019-03-18T10:06:13.786Z,1.80
2019-03-18T10:08:43.102Z,1.90
2019-03-18T10:11:13.252Z,1.57
2019-03-18T10:13:42.491Z,1.53
2019-03-18T10:16:11.743Z,1.50
2019-03-18T10:18:40.957Z,1.60
2019-03-18T10:21:10.206Z,1.40
2019-03-18T10:23:39.425Z,1.20
2019-03-18T10:26:08.658Z,1.73
2019-03-18T10:28:38.041Z,1.27
2019-03-18T10:31:07.309Z,1.40
2019-03-18T10:33:36.595Z,1.40
2019-03-18T10:36:05.955Z,1.33
2019-03-18T10:38:35.173Z,1.70
2019-03-18T10:41:04.412Z,1.50
2019-03-18T10:43:33.627Z,1.50
2019-03-18T10:46:02.862Z,1.50
2019-03-18T10:48:32.069Z,1.50
2019-03-18T10:51:01.469Z,1.53
2019-03-18T10:53:30.706Z,1.10
2019-03-18T10:56:07.801Z,1.63
2019-03-18T10:58:30.964Z,1.70
2019-03-18T11:01:00.437Z,1.70
2019-03-18T11:03:29.701Z,1.53
2019-03-18T11:05:59.114Z,1.57
2019-03-18T11:08:28.365Z,1.80
2019-03-18T11:10:58.287Z,1.67
2019-03-18T11:13:27.488Z,1.70
2019-03-18T11:15:56.747Z,1.80
2019-03-18T11:18:25.954Z,1.47
2019-03-18T11:20:55.203Z,1.40
2019-03-18T11:23:24.402Z,1.43
2019-03-18T11:25:53.650Z,1.20
2019-03-18T11:28:22.930Z,1.43
2019-03-18T11:30:52.187Z,1.20
2019-03-18T11:33:21.404Z,1.50
2019-03-18T11:35:51.899Z,1.17
2019-03-18T11:38:21.124Z,1.30
2019-03-18T11:40:50.348Z,1.40
2019-03-18T11:43:19.603Z,1.50
2019-03-18T11:45:48.917Z,1.50
2019-03-18T11:48:18.645Z,1.23
2019-03-18T11:50:47.958Z,1.40
2019-03-18T11:53:17.209Z,1.07
2019-03-18T11:55:46.529Z,1.30
2019-03-18T11:58:15.789Z,1.37
2019-03-18T12:00:45.054Z,1.40
2019-03-18T12:03:14.289Z,1.40
2019-03-18T12:05:43.543Z,3.40
2019-03-18T12:08:12.746Z,1.20
2019-03-18T12:10:41.980Z,1.33
2019-03-18T12:13:11.452Z,1.80
2019-03-18T12:15:40.684Z,1.17
2019-03-18T12:18:09.936Z,1.37
2019-03-18T12:20:39.170Z,1.63
2019-03-18T12:23:08.416Z,1.27
2019-03-18T12:25:37.690Z,1.10
2019-03-18T12:28:06.956Z,1.00
2019-03-18T12:30:36.168Z,1.03
2019-03-18T12:33:05.454Z,1.00
2019-03-18T12:35:34.671Z,1.00
2019-03-18T12:38:04.113Z,1.20
2019-03-18T12:40:33.319Z,1.30
2019-03-18T12:43:03.430Z,1.00
2019-03-18T12:45:32.681Z,1.00
2019-03-18T12:48:01.923Z,1.00
2019-03-18T12:50:49.090Z,0.90
2019-03-18T12:53:02.112Z,1.10
2019-03-18T12:55:31.326Z,1.07
2019-03-18T12:58:00.574Z,1.10
2019-03-18T13:00:30.098Z,1.13
2019-03-18T13:02:59.659Z,1.47
2019-03-18T13:05:28.891Z,1.03
2019-03-18T13:07:58.258Z,1.23
2019-03-18T13:10:27.486Z,1.20
2019-03-18T13:12:56.723Z,0.90
2019-03-18T13:15:26.034Z,1.10
2019-03-18T13:17:55.285Z,0.80
2019-03-18T13:20:24.509Z,1.00
2019-03-18T13:22:54.395Z,1.13
2019-03-18T13:25:23.935Z,1.17
2019-03-18T13:27:53.185Z,1.10
2019-03-18T13:30:22.436Z,0.93
2019-03-18T13:32:51.695Z,0.90
2019-03-18T13:35:20.880Z,1.10
2019-03-18T13:37:50.291Z,1.00
2019-03-18T13:40:19.614Z,1.10
2019-03-18T13:42:49.147Z,1.23
2019-03-18T13:45:18.673Z,1.30
2019-03-18T13:47:48.313Z,1.30
2019-03-18T13:50:17.556Z,1.30
2019-03-18T13:52:47.014Z,1.37
2019-03-18T13:55:16.254Z,1.50
2019-03-18T13:57:45.484Z,1.80
2019-03-18T14:00:15.268Z,1.50
2019-03-18T14:02:44.504Z,1.77
2019-03-18T14:05:14.249Z,1.13
2019-03-18T14:07:43.482Z,1.33
2019-03-18T14:10:14.127Z,1.20
2019-03-18T14:12:43.391Z,1.30
2019-03-18T14:15:14.635Z,1.27
2019-03-18T14:17:43.906Z,1.30
2019-03-18T14:20:14.450Z,1.37
2019-03-18T14:22:43.872Z,1.30
2019-03-18T14:25:13.645Z,1.27
2019-03-18T14:27:42.926Z,1.27
2019-03-18T14:30:14.523Z,1.40
2019-03-18T14:32:43.807Z,1.60
2019-03-18T14:35:13.920Z,1.40
2019-03-18T14:37:43.164Z,1.30
2019-03-18T14:40:13.360Z,1.30
2019-03-18T14:42:42.664Z,1.70
2019-03-18T14:45:14.461Z,1.37
2019-03-18T14:47:43.869Z,1.50
2019-03-18T14:50:13.905Z,1.40
2019-03-18T14:52:43.218Z,1.30
2019-03-18T14:55:13.182Z,1.57
2019-03-18T14:57:42.955Z,1.40
2019-03-18T15:00:15.569Z,1.30
2019-03-18T15:02:44.793Z,1.50
2019-03-18T15:05:14.380Z,1.60
2019-03-18T15:07:43.790Z,1.47
2019-03-18T15:10:13.077Z,1.50
2019-03-18T15:12:42.294Z,1.50
2019-03-18T15:15:14.461Z,1.20
2019-03-18T15:17:43.675Z,1.40
2019-03-18T15:20:12.951Z,1.57
2019-03-18T15:22:42.165Z,1.50
2019-03-18T15:25:21.792Z,1.50
2019-03-18T15:27:51.010Z,1.37
2019-03-18T15:30:21.571Z,1.40
2019-03-18T15:32:50.815Z,1.40
2019-03-18T15:35:20.055Z,1.60
2019-03-18T15:37:49.276Z,1.70
2019-03-18T15:40:19.007Z,1.57
2019-03-18T15:42:48.448Z,1.40
2019-03-18T15:45:18.168Z,1.70
2019-03-18T15:47:47.392Z,2.73
2019-03-18T15:50:17.182Z,1.70
2019-03-18T15:52:46.452Z,1.43
2019-03-18T15:55:16.239Z,7.43
2019-03-18T15:57:45.455Z,4.50
2019-03-18T16:00:16.181Z,3.70
2019-03-18T16:02:45.399Z,8.33
2019-03-18T16:05:14.849Z,5.00
2019-03-18T16:07:44.069Z,4.07
2019-03-18T16:10:13.762Z,3.07
2019-03-18T16:12:42.950Z,2.23
2019-03-18T16:15:12.287Z,3.77
2019-03-18T16:17:41.995Z,2.50
2019-03-18T16:20:12.775Z,5.23
2019-03-18T16:22:41.985Z,6.10
2019-03-18T16:25:11.341Z,2.87
2019-03-18T16:27:40.650Z,7.83
2019-03-18T16:30:11.727Z,2.30
2019-03-18T16:32:41.122Z,2.47
2019-03-18T16:35:11.039Z,3.40
2019-03-18T16:37:40.253Z,2.63
2019-03-18T16:40:10.722Z,12.17
2019-03-18T16:42:40.290Z,8.93
2019-03-18T16:45:11.034Z,2.20
2019-03-18T16:47:40.236Z,5.13
2019-03-18T16:50:11.274Z,5.10
2019-03-18T16:52:40.479Z,7.60
2019-03-18T16:55:09.848Z,3.33
2019-03-18T16:57:39.085Z,3.53
2019-03-18T17:00:10.781Z,5.43
2019-03-18T17:02:39.991Z,9.60
2019-03-18T17:05:09.639Z,3.63
2019-03-18T17:07:38.921Z,10.50
2019-03-18T17:10:08.481Z,3.33
2019-03-18T17:12:37.701Z,4.77
2019-03-18T17:15:07.521Z,6.40
2019-03-18T17:17:36.766Z,5.93
2019-03-18T17:20:07.091Z,2.20
2019-03-18T17:22:48.195Z,2.73
2019-03-18T17:25:09.021Z,2.30
2019-03-18T17:27:38.244Z,2.80
2019-03-18T17:30:10.180Z,3.10
2019-03-18T17:32:39.436Z,2.30
2019-03-18T17:35:08.722Z,3.20
2019-03-18T17:37:37.930Z,2.30
2019-03-18T17:40:07.302Z,3.23
2019-03-18T17:42:36.540Z,2.70
2019-03-18T17:45:06.455Z,2.30
2019-03-18T17:47:35.684Z,2.30
2019-03-18T17:50:05.265Z,2.70
2019-03-18T17:52:34.503Z,2.73
2019-03-18T17:55:03.788Z,5.37
2019-03-18T17:57:33.037Z,3.60
2019-03-18T18:00:02.352Z,4.13
2019-03-18T18:02:31.623Z,2.77
2019-03-18T18:05:03.052Z,3.77
2019-03-18T18:07:31.807Z,5.00
2019-03-18T18:10:01.365Z,5.20
2019-03-18T18:12:30.610Z,6.13
2019-03-18T18:14:59.869Z,4.30
2019-03-18T18:17:29.125Z,3.63
2019-03-18T18:19:58.439Z,4.00
2019-03-18T18:22:27.702Z,4.60
2019-03-18T18:24:56.992Z,2.60
2019-03-18T18:27:26.391Z,2.70
2019-03-18T18:29:55.607Z,2.50
2019-03-18T18:32:24.986Z,2.63
2019-03-18T18:34:54.775Z,2.60
2019-03-18T18:37:24.081Z,2.70
2019-03-18T18:39:53.300Z,2.60
2019-03-18T18:42:22.756Z,2.83
2019-03-18T18:44:52.171Z,5.03
2019-03-18T18:47:21.448Z,14.70
2019-03-18T18:49:50.768Z,14.07
2019-03-18T18:52:20.189Z,13.40
2019-03-18T18:54:49.641Z,13.13
2019-03-18T18:57:18.965Z,11.80
2019-03-18T18:59:48.198Z,11.20
2019-03-18T19:02:17.443Z,9.93
2019-03-18T19:04:46.735Z,9.27
2019-03-18T19:07:15.993Z,8.03
2019-03-18T19:09:45.567Z,9.10
2019-03-18T19:12:14.913Z,18.17
2019-03-18T19:14:44.141Z,20.07
2019-03-18T19:17:13.387Z,19.07
2019-03-18T19:19:42.818Z,24.47
2019-03-18T19:22:12.082Z,19.10
2019-03-18T19:24:41.440Z,18.13
2019-03-18T19:27:11.031Z,17.67
2019-03-18T19:29:40.215Z,15.63
2019-03-18T19:32:09.477Z,11.23
2019-03-18T19:34:38.699Z,9.10
2019-03-18T19:37:07.987Z,8.67
2019-03-18T19:39:37.209Z,8.53
2019-03-18T19:42:06.512Z,10.50
2019-03-18T19:44:35.894Z,11.57
2019-03-18T19:47:05.148Z,11.90
2019-03-18T19:49:34.637Z,14.10
2019-03-18T19:52:03.974Z,14.03
2019-03-18T19:54:33.218Z,12.60
2019-03-18T19:57:02.642Z,12.37
2019-03-18T19:59:31.876Z,11.87
2019-03-18T20:02:01.108Z,11.40
2019-03-18T20:04:30.535Z,11.00
2019-03-18T20:06:59.791Z,11.50
2019-03-18T20:09:29.365Z,11.30
2019-03-18T20:11:58.569Z,12.20
2019-03-18T20:14:27.982Z,12.20
2019-03-18T20:16:57.208Z,12.00
2019-03-18T20:19:26.582Z,9.37
2019-03-18T20:21:55.841Z,9.33
2019-03-18T20:24:25.140Z,10.97
2019-03-18T20:26:54.400Z,11.70
2019-03-18T20:29:23.803Z,12.10
2019-03-18T20:31:53.218Z,24.83
2019-03-18T20:34:22.488Z,19.17
2019-03-18T20:36:52.008Z,19.60
2019-03-18T20:39:21.276Z,21.23
2019-03-18T20:41:50.699Z,19.33
2019-03-18T20:44:20.158Z,7.50
2019-03-18T20:46:49.530Z,6.30
2019-03-18T20:49:19.023Z,6.97
2019-03-18T20:51:48.246Z,8.83
2019-03-18T20:54:17.490Z,9.47
2019-03-18T20:56:46.690Z,6.30
2019-03-18T20:59:15.932Z,5.77
2019-03-18T21:01:45.149Z,5.63
2019-03-18T21:04:14.431Z,5.90
2019-03-18T21:06:43.685Z,5.20
2019-03-18T21:09:12.953Z,5.53
2019-03-18T21:11:42.218Z,6.43
2019-03-18T21:14:11.490Z,6.73
2019-03-18T21:16:40.803Z,6.80
2019-03-18T21:19:10.039Z,8.57
2019-03-18T21:21:39.254Z,7.10
2019-03-18T21:24:08.499Z,7.30
2019-03-18T21:26:37.771Z,14.70
2019-03-18T21:29:07.022Z,7.77
2019-03-18T21:31:36.267Z,12.23
2019-03-18T21:34:05.514Z,6.90
2019-03-18T21:36:38.157Z,7.17
2019-03-18T21:39:09.371Z,6.33
2019-03-18T21:41:38.601Z,6.37
2019-03-18T21:44:07.983Z,13.23
2019-03-18T21:46:37.208Z,9.13
2019-03-18T21:49:06.449Z,7.93
2019-03-18T21:51:35.690Z,6.90
2019-03-18T21:54:05.274Z,8.17
2019-03-18T21:56:34.516Z,6.97
2019-03-18T21:59:03.750Z,6.83
2019-03-18T22:01:32.952Z,8.03
2019-03-18T22:04:02.187Z,7.20
2019-03-18T22:06:31.420Z,8.27
2019-03-18T22:09:00.637Z,11.70
2019-03-18T22:11:29.884Z,10.77
2019-03-18T22:13:59.103Z,9.07
2019-03-18T22:16:28.342Z,9.60
2019-03-18T22:18:57.548Z,16.87
2019-03-18T22:21:26.797Z,11.67
2019-03-18T22:23:56.012Z,9.63
2019-03-18T22:26:25.281Z,7.17
2019-03-18T22:28:54.721Z,12.73
2019-03-18T22:31:24.013Z,11.20
2019-03-18T22:33:53.398Z,8.70
2019-03-18T22:36:22.646Z,6.53
2019-03-18T22:38:51.864Z,5.53
2019-03-18T22:41:21.095Z,6.20
2019-03-18T22:43:50.336Z,5.50
2019-03-18T22:46:19.565Z,5.40
2019-03-18T22:48:48.793Z,5.43
2019-03-18T22:51:18.531Z,6.07
2019-03-18T22:53:47.762Z,5.47
2019-03-18T22:56:16.980Z,5.67
2019-03-18T22:58:46.190Z,5.47
2019-03-18T23:01:18.334Z,5.60
2019-03-18T23:03:47.558Z,6.57
2019-03-18T23:06:16.807Z,6.30
2019-03-18T23:08:46.009Z,5.97
2019-03-18T23:11:15.276Z,6.00
2019-03-18T23:13:44.515Z,5.87
2019-03-18T23:16:13.743Z,5.50
2019-03-18T23:18:42.946Z,5.03
2019-03-18T23:21:12.195Z,5.37
2019-03-18T23:23:41.407Z,5.33
2019-03-18T23:26:10.670Z,4.97
2019-03-18T23:28:39.884Z,5.10
2019-03-18T23:31:09.149Z,5.27
2019-03-18T23:33:38.358Z,5.73
2019-03-18T23:36:07.628Z,5.37
2019-03-18T23:38:36.832Z,5.50
2019-03-18T23:41:06.069Z,5.90
2019-03-18T23:43:35.302Z,6.13
2019-03-18T23:46:04.533Z,5.97
2019-03-18T23:48:33.748Z,5.83
2019-03-18T23:51:02.982Z,5.90
2019-03-18T23:53:32.186Z,5.30
2019-03-18T23:56:01.428Z,5.33
2019-03-18T23:58:30.639Z,5.43
